createdAt,value
2022-11-05T00:01:27.515Z,44.28
2022-11-05T00:04:15.929Z,47.80
2022-11-05T00:07:04.656Z,46.85
2022-11-05T00:09:34.752Z,48.30
2022-11-05T00:12:27.588Z,47.38
2022-11-05T00:15:16.747Z,47.10
2022-11-05T00:17:45.588Z,46.63
2022-11-05T00:20:14.726Z,46.17
2022-11-05T00:23:03.045Z,46.00
2022-11-05T00:25:32.140Z,45.28
2022-11-05T00:28:03.647Z,45.15
2022-11-05T00:30:32.736Z,43.95
2022-11-05T00:33:04.768Z,43.28
2022-11-05T00:35:33.571Z,42.42
2022-11-05T00:38:05.101Z,43.78
2022-11-05T00:40:36.602Z,41.13
2022-11-05T00:43:24.983Z,41.63
2022-11-05T00:45:53.762Z,40.13
2022-11-05T00:48:42.601Z,39.80
2022-11-05T00:51:12.188Z,40.30
2022-11-05T00:53:41.165Z,38.28
2022-11-05T00:56:10.427Z,38.78
2022-11-05T00:58:39.412Z,37.83
2022-11-05T01:01:08.173Z,37.03
2022-11-05T01:03:38.874Z,36.05
2022-11-05T01:06:11.916Z,36.47
2022-11-05T01:08:42.068Z,35.08
2022-11-05T01:11:33.925Z,35.95
2022-11-05T01:14:06.365Z,37.85
2022-11-05T01:16:35.941Z,45.45
2022-11-05T01:19:07.260Z,38.13
2022-11-05T01:21:36.480Z,40.40
2022-11-05T01:24:05.705Z,39.20
2022-11-05T01:26:34.529Z,37.83
2022-11-05T01:29:03.427Z,36.85
2022-11-05T01:31:32.169Z,37.22
2022-11-05T01:34:02.707Z,34.72
2022-11-05T01:36:31.437Z,33.92
2022-11-05T01:39:00.153Z,36.20
2022-11-05T01:41:29.034Z,32.97
2022-11-05T01:44:00.971Z,32.60
2022-11-05T01:46:39.927Z,33.58
2022-11-05T01:49:17.392Z,31.73
2022-11-05T01:51:47.464Z,32.30
2022-11-05T01:54:20.677Z,33.30
2022-11-05T01:56:54.699Z,33.30
2022-11-05T01:59:27.351Z,33.85
2022-11-05T02:01:56.703Z,33.80
2022-11-05T02:04:32.378Z,36.10
2022-11-05T02:07:01.911Z,34.05
2022-11-05T02:09:51.092Z,33.42
2022-11-05T02:12:21.749Z,33.88
2022-11-05T02:14:51.697Z,34.00
2022-11-05T02:17:46.507Z,31.95
2022-11-05T02:20:24.557Z,34.22
2022-11-05T02:23:28.897Z,32.88
2022-11-05T02:26:25.416Z,32.40
2022-11-05T02:28:59.902Z,31.88
2022-11-05T02:31:34.948Z,32.97
2022-11-05T02:34:24.055Z,33.22
2022-11-05T02:37:00.440Z,31.75
2022-11-05T02:39:35.893Z,32.03
2022-11-05T02:42:12.337Z,33.92
2022-11-05T02:44:43.017Z,31.83
2022-11-05T02:47:28.470Z,32.03
2022-11-05T02:50:26.964Z,34.53
2022-11-05T02:53:02.769Z,33.28
2022-11-05T02:55:39.802Z,32.85
2022-11-05T02:58:09.313Z,33.00
2022-11-05T03:00:55.651Z,32.53
2022-11-05T03:03:26.241Z,31.35
2022-11-05T03:06:16.011Z,30.63
2022-11-05T03:09:11.150Z,32.60
2022-11-05T03:12:19.694Z,32.15
2022-11-05T03:15:04.985Z,32.28
2022-11-05T03:17:44.308Z,32.20
2022-11-05T03:20:26.030Z,32.00
2022-11-05T03:23:02.974Z,31.50
2022-11-05T03:25:34.962Z,32.28
2022-11-05T03:28:08.032Z,32.00
2022-11-05T03:30:39.742Z,32.55
2022-11-05T03:33:14.974Z,33.40
2022-11-05T03:35:47.879Z,33.38
2022-11-05T03:38:23.855Z,32.05
2022-11-05T03:40:57.219Z,31.98
2022-11-05T03:43:31.174Z,32.20
2022-11-05T03:46:06.495Z,31.55
2022-11-05T03:48:40.676Z,32.90
2022-11-05T03:51:15.663Z,30.98
2022-11-05T03:53:51.190Z,30.52
2022-11-05T03:56:28.107Z,30.92
2022-11-05T03:58:59.284Z,31.50
2022-11-05T04:01:29.652Z,29.70
2022-11-05T04:03:59.159Z,32.08
2022-11-05T04:06:47.944Z,30.05
2022-11-05T04:09:36.993Z,29.73
2022-11-05T04:12:25.515Z,29.50
2022-11-05T04:14:54.223Z,29.10
2022-11-05T04:17:22.965Z,29.42
2022-11-05T04:20:11.408Z,27.23
2022-11-05T04:22:59.731Z,28.73
2022-11-05T04:25:28.543Z,27.88
2022-11-05T04:28:01.856Z,27.23
2022-11-05T04:30:30.681Z,26.33
2022-11-05T04:33:05.209Z,28.30
2022-11-05T04:35:38.002Z,44.38
2022-11-05T04:40:38.207Z,28.55
2022-11-05T04:43:13.658Z,30.23
2022-11-05T04:45:44.387Z,26.58
2022-11-05T04:48:13.513Z,27.40
2022-11-05T04:50:42.988Z,27.05
2022-11-05T04:53:12.012Z,29.83
2022-11-05T04:55:41.285Z,26.23
2022-11-05T04:58:11.050Z,23.85
2022-11-05T05:00:39.876Z,23.88
2022-11-05T05:03:08.896Z,24.75
2022-11-05T05:05:38.299Z,24.05
2022-11-05T05:08:07.351Z,23.92
2022-11-05T05:10:36.309Z,23.83
2022-11-05T05:13:05.152Z,24.25
2022-11-05T05:15:34.590Z,24.92
2022-11-05T05:18:03.284Z,22.55
2022-11-05T05:20:51.672Z,23.55
2022-11-05T05:23:20.349Z,24.10
2022-11-05T05:25:49.546Z,22.48
2022-11-05T05:28:18.722Z,23.92
2022-11-05T05:30:47.468Z,22.70
2022-11-05T05:33:16.277Z,22.88
2022-11-05T05:35:45.227Z,22.60
2022-11-05T05:38:13.901Z,22.60
2022-11-05T05:40:42.816Z,21.65
2022-11-05T05:43:11.865Z,22.95
2022-11-05T05:45:40.835Z,20.25
2022-11-05T05:48:09.800Z,18.88
2022-11-05T05:50:40.418Z,18.92
2022-11-05T05:53:10.975Z,18.95
2022-11-05T05:55:40.416Z,18.73
2022-11-05T05:58:09.674Z,18.17
2022-11-05T06:00:39.146Z,17.92
2022-11-05T06:03:08.592Z,18.08
2022-11-05T06:05:38.149Z,16.67
2022-11-05T06:08:07.112Z,17.30
2022-11-05T06:10:36.483Z,18.35
2022-11-05T06:13:05.442Z,17.23
2022-11-05T06:15:35.996Z,18.45
2022-11-05T06:18:05.009Z,17.02
2022-11-05T06:20:33.735Z,17.15
2022-11-05T06:23:02.476Z,17.40
2022-11-05T06:25:31.186Z,18.92
2022-11-05T06:28:00.000Z,17.65
2022-11-05T06:30:28.803Z,18.10
2022-11-05T06:32:57.530Z,17.92
2022-11-05T06:35:26.245Z,17.33
2022-11-05T06:37:55.217Z,17.27
2022-11-05T06:40:23.945Z,17.42
2022-11-05T06:42:54.672Z,17.70
2022-11-05T06:45:23.688Z,18.15
2022-11-05T06:47:58.052Z,18.55
2022-11-05T06:50:28.683Z,17.92
2022-11-05T06:53:01.087Z,17.73
2022-11-05T06:55:32.127Z,18.92
2022-11-05T06:58:00.972Z,17.90
2022-11-05T07:00:30.032Z,18.02
2022-11-05T07:03:07.264Z,18.02
2022-11-05T07:05:38.733Z,17.55
2022-11-05T07:08:07.702Z,18.08
2022-11-05T07:10:37.521Z,17.63
2022-11-05T07:13:08.411Z,17.75
2022-11-05T07:15:38.796Z,16.83
2022-11-05T07:18:08.681Z,16.98
2022-11-05T07:20:37.615Z,17.83
2022-11-05T07:23:11.676Z,18.92
2022-11-05T07:25:41.878Z,18.52
2022-11-05T07:28:11.915Z,17.50
2022-11-05T07:30:40.604Z,18.45
2022-11-05T07:33:09.698Z,17.75
2022-11-05T07:35:39.080Z,16.80
2022-11-05T07:38:08.662Z,17.13
2022-11-05T07:40:37.491Z,17.02
2022-11-05T07:43:06.273Z,17.95
2022-11-05T07:45:35.195Z,17.40
2022-11-05T07:48:06.402Z,18.83
2022-11-05T07:50:37.277Z,18.75
2022-11-05T07:53:08.978Z,17.58
2022-11-05T07:55:38.005Z,18.45
2022-11-05T07:58:06.847Z,18.65
2022-11-05T08:00:35.915Z,17.92
2022-11-05T08:03:08.534Z,20.33
2022-11-05T08:05:40.370Z,18.17
2022-11-05T08:08:10.995Z,17.83
2022-11-05T08:10:40.174Z,17.60
2022-11-05T08:13:10.737Z,18.15
2022-11-05T08:15:40.247Z,17.95
2022-11-05T08:18:12.632Z,18.27
2022-11-05T08:20:43.274Z,18.10
2022-11-05T08:23:13.017Z,17.88
2022-11-05T08:25:43.061Z,16.77
2022-11-05T08:28:14.560Z,17.65
2022-11-05T08:30:43.467Z,17.38
2022-11-05T08:33:14.271Z,17.40
2022-11-05T08:35:43.981Z,17.80
2022-11-05T08:38:16.435Z,17.35
2022-11-05T08:40:54.482Z,18.25
2022-11-05T08:43:23.212Z,17.42
2022-11-05T08:45:52.075Z,21.55
2022-11-05T08:48:21.242Z,20.02
2022-11-05T08:50:50.775Z,19.92
2022-11-05T08:53:20.276Z,18.38
2022-11-05T08:55:51.219Z,19.10
2022-11-05T08:58:21.256Z,18.55
2022-11-05T09:00:51.667Z,18.42
2022-11-05T09:03:20.511Z,16.70
2022-11-05T09:05:49.409Z,16.88
2022-11-05T09:08:20.088Z,16.67
2022-11-05T09:10:50.819Z,16.52
2022-11-05T09:13:20.455Z,16.48
2022-11-05T09:15:51.500Z,16.90
2022-11-05T09:18:21.669Z,17.90
2022-11-05T09:20:50.484Z,17.20
2022-11-05T09:23:19.259Z,16.80
2022-11-05T09:25:48.478Z,16.90
2022-11-05T09:28:21.163Z,16.85
2022-11-05T09:33:22.347Z,18.63
2022-11-05T14:32:52.010Z,33.38
2022-11-05T14:35:21.643Z,32.95
2022-11-05T14:37:59.046Z,34.08
2022-11-05T14:40:46.018Z,32.85
2022-11-05T14:43:16.750Z,32.58
2022-11-05T14:46:08.754Z,33.67
2022-11-05T14:48:43.427Z,32.90
2022-11-05T14:51:28.217Z,32.83
2022-11-05T14:54:10.472Z,34.40
2022-11-05T14:56:55.878Z,33.05
2022-11-05T14:59:29.201Z,33.30
2022-11-05T15:02:08.864Z,34.63
2022-11-05T15:04:41.615Z,32.63
2022-11-05T15:07:11.764Z,33.75
2022-11-05T15:09:51.805Z,33.65
2022-11-05T15:12:50.343Z,33.83
2022-11-05T15:15:28.646Z,33.38
2022-11-05T15:18:02.015Z,34.20
2022-11-05T15:20:46.777Z,36.47
2022-11-05T15:23:20.764Z,36.17
2022-11-05T15:26:10.855Z,34.38
2022-11-05T15:28:46.082Z,38.28
2022-11-05T15:31:15.718Z,37.85
2022-11-05T15:33:48.529Z,35.78
2022-11-05T15:39:08.502Z,41.03
2022-11-05T15:41:40.576Z,41.78
2022-11-05T15:44:29.929Z,39.47
2022-11-05T15:47:20.475Z,39.88
2022-11-05T15:49:52.766Z,42.05
2022-11-05T15:52:25.194Z,41.83
2022-11-05T15:55:14.144Z,41.90
2022-11-05T15:57:51.180Z,41.33
2022-11-05T16:00:28.492Z,44.15
2022-11-05T16:02:58.150Z,41.05
2022-11-05T16:05:30.653Z,40.78
2022-11-05T16:08:01.201Z,40.53
2022-11-05T16:10:35.617Z,43.83
2022-11-05T16:13:40.619Z,40.17
2022-11-05T16:16:31.757Z,39.00
2022-11-05T16:19:00.552Z,36.83
2022-11-05T16:21:29.775Z,37.35
2022-11-05T16:24:01.034Z,36.15
2022-11-05T16:27:02.272Z,36.80
2022-11-05T16:29:40.858Z,38.70
2022-11-05T16:32:30.564Z,36.22
2022-11-05T16:35:03.168Z,35.90
2022-11-05T16:37:40.780Z,34.15
2022-11-05T16:40:18.525Z,34.78
2022-11-05T16:42:49.591Z,34.40
2022-11-05T16:45:20.073Z,34.70
2022-11-05T16:47:49.934Z,33.72
2022-11-05T16:50:23.373Z,34.10
2022-11-05T16:52:52.631Z,33.65
2022-11-05T16:55:21.979Z,33.92
2022-11-05T16:57:54.969Z,32.60
2022-11-05T17:03:42.822Z,29.95
2022-11-05T17:06:12.745Z,32.35
2022-11-05T17:08:42.262Z,31.30
2022-11-05T17:11:15.660Z,31.67
2022-11-05T17:13:45.222Z,32.28
2022-11-05T17:16:17.873Z,32.25
2022-11-05T17:18:48.055Z,31.38
2022-11-05T17:21:16.834Z,32.85
2022-11-05T17:23:45.533Z,32.22
2022-11-05T17:26:16.200Z,32.08
2022-11-05T17:28:45.477Z,33.40
2022-11-05T17:31:15.243Z,32.08
2022-11-05T17:33:44.485Z,33.13
2022-11-05T17:36:15.890Z,30.98
2022-11-05T17:38:46.121Z,31.57
2022-11-05T17:41:17.185Z,29.90
2022-11-05T17:43:46.422Z,31.30
2022-11-05T17:46:17.850Z,30.00
2022-11-05T17:48:47.494Z,31.05
2022-11-05T17:51:19.462Z,30.95
2022-11-05T17:53:50.102Z,30.83
2022-11-05T17:56:32.460Z,32.00
2022-11-05T17:59:04.267Z,28.83
2022-11-05T18:01:36.663Z,30.58
2022-11-05T18:04:08.917Z,31.70
2022-11-05T18:06:39.752Z,29.88
2022-11-05T18:09:10.556Z,32.00
2022-11-05T18:11:40.133Z,30.52
2022-11-05T18:14:09.017Z,31.92
2022-11-05T18:16:38.636Z,31.95
2022-11-05T18:19:07.791Z,31.30
2022-11-05T18:21:36.971Z,32.75
2022-11-05T18:24:07.717Z,30.50
2022-11-05T18:26:36.868Z,32.13
2022-11-05T18:29:07.125Z,31.20
2022-11-05T18:31:35.885Z,31.75
2022-11-05T18:34:05.179Z,32.00
2022-11-05T18:36:35.521Z,31.38
2022-11-05T18:39:06.271Z,32.17
2022-11-05T18:41:35.097Z,31.67
2022-11-05T18:44:05.154Z,31.67
2022-11-05T18:49:23.885Z,31.10
2022-11-05T18:51:52.681Z,32.25
2022-11-05T18:54:21.614Z,32.08
2022-11-05T18:56:50.678Z,33.38
2022-11-05T18:59:39.222Z,31.90
2022-11-05T19:02:10.288Z,33.17
2022-11-05T19:04:39.520Z,33.40
2022-11-05T19:07:09.692Z,32.40
2022-11-05T19:09:39.658Z,34.13
2022-11-05T19:12:09.279Z,33.25
2022-11-05T19:14:38.620Z,33.10
2022-11-05T19:17:07.488Z,34.53
2022-11-05T19:19:36.214Z,34.65
2022-11-05T19:22:05.379Z,33.58
2022-11-05T19:24:34.453Z,33.33
2022-11-05T19:27:03.960Z,34.15
2022-11-05T19:29:32.991Z,34.92
2022-11-05T19:32:01.816Z,33.92
2022-11-05T19:34:30.592Z,33.47
2022-11-05T19:36:59.323Z,32.97
2022-11-05T19:39:28.099Z,34.25
2022-11-05T19:42:02.979Z,33.95
2022-11-05T19:44:32.945Z,34.05
2022-11-05T19:47:01.698Z,34.45
2022-11-05T19:49:30.459Z,34.67
2022-11-05T19:51:59.260Z,35.28
2022-11-05T19:54:30.832Z,34.42
2022-11-05T19:56:59.802Z,34.30
2022-11-05T19:59:28.625Z,35.10
2022-11-05T20:01:57.578Z,33.63
2022-11-05T20:04:26.550Z,35.45
2022-11-05T20:06:55.304Z,35.20
2022-11-05T20:09:24.282Z,33.95
2022-11-05T20:11:57.100Z,35.38
2022-11-05T20:14:27.737Z,34.65
2022-11-05T20:16:56.633Z,35.25
2022-11-05T20:19:25.554Z,33.47
2022-11-05T20:21:54.440Z,33.38
2022-11-05T20:24:25.514Z,32.17
2022-11-05T20:26:57.182Z,33.60
2022-11-05T20:29:34.724Z,32.25
2022-11-05T20:32:05.538Z,33.55
2022-11-05T20:34:35.981Z,33.05
2022-11-05T20:37:05.235Z,33.05
2022-11-05T20:39:34.143Z,33.33
2022-11-05T20:42:02.929Z,31.40
2022-11-05T20:44:31.777Z,32.72
2022-11-05T20:47:00.572Z,33.42
2022-11-05T20:49:29.361Z,32.63
2022-11-05T20:51:59.082Z,31.65
2022-11-05T20:54:27.868Z,33.78
2022-11-05T20:56:56.784Z,32.25
2022-11-05T20:59:25.665Z,31.60
2022-11-05T21:01:55.136Z,31.58
2022-11-05T21:04:25.035Z,32.28
2022-11-05T21:06:54.325Z,31.08
2022-11-05T21:09:23.593Z,30.25
2022-11-05T21:12:11.991Z,31.02
2022-11-05T21:14:43.109Z,30.65
2022-11-05T21:17:13.630Z,30.60
2022-11-05T21:19:42.397Z,31.25
2022-11-05T21:22:11.196Z,31.50
2022-11-05T21:24:39.964Z,31.05
2022-11-05T21:27:08.686Z,33.38
2022-11-05T21:29:40.835Z,32.78
2022-11-05T21:32:09.714Z,33.07
2022-11-05T21:34:38.425Z,32.03
2022-11-05T21:37:07.916Z,32.83
2022-11-05T21:39:36.772Z,33.50
2022-11-05T21:42:05.593Z,32.15
2022-11-05T21:44:34.351Z,31.42
2022-11-05T21:47:05.499Z,31.73
2022-11-05T21:49:36.797Z,32.25
2022-11-05T21:52:26.387Z,32.45
2022-11-05T21:55:17.553Z,31.35
2022-11-05T21:58:05.966Z,32.72
2022-11-05T22:00:39.111Z,32.53
2022-11-05T22:03:07.926Z,33.50
2022-11-05T22:05:36.864Z,33.13
2022-11-05T22:08:05.728Z,33.08
2022-11-05T22:10:34.563Z,31.92
2022-11-05T22:13:03.366Z,32.20
2022-11-05T22:15:32.159Z,33.00
2022-11-05T22:18:02.395Z,33.72
2022-11-05T22:20:31.168Z,33.20
2022-11-05T22:23:00.254Z,32.08
2022-11-05T22:25:29.086Z,34.47
2022-11-05T22:27:57.850Z,33.63
2022-11-05T22:30:28.579Z,35.55
2022-11-05T22:32:57.355Z,34.80
2022-11-05T22:35:26.117Z,33.30
2022-11-05T22:37:54.887Z,36.60
2022-11-05T22:40:24.303Z,37.78
2022-11-05T22:42:53.129Z,37.97
2022-11-05T22:45:21.917Z,36.45
2022-11-05T22:47:50.783Z,35.55
2022-11-05T22:50:19.559Z,37.47
2022-11-05T22:52:48.261Z,37.30
2022-11-05T22:55:17.162Z,38.05
2022-11-05T22:57:45.978Z,36.15
2022-11-05T23:00:18.318Z,37.80
2022-11-05T23:02:47.301Z,36.20
2022-11-05T23:05:18.573Z,37.10
2022-11-05T23:08:07.874Z,38.83
2022-11-05T23:10:58.504Z,38.92
2022-11-05T23:13:27.483Z,40.15
2022-11-05T23:16:15.831Z,40.85
2022-11-05T23:19:04.367Z,42.35
2022-11-05T23:21:53.567Z,43.63
2022-11-05T23:24:23.298Z,42.72
2022-11-05T23:26:52.515Z,44.20
2022-11-05T23:29:24.050Z,42.95
2022-11-05T23:32:12.772Z,42.97
2022-11-05T23:34:41.646Z,42.40
2022-11-05T23:37:30.788Z,44.90
2022-11-05T23:39:59.691Z,45.78
2022-11-05T23:42:48.009Z,47.90
2022-11-05T23:45:37.030Z,48.85
2022-11-05T23:48:22.234Z,51.55
2022-11-05T23:50:57.554Z,49.50
2022-11-05T23:53:26.838Z,48.90
2022-11-05T23:55:59.734Z,49.83
2022-11-05T23:58:28.857Z,45.83
